Time;durP1;ratioP1;P1;durP2;ratioP2;P2;SDS_P1;SDS_P2;PMS_P1;PMS_P2;Temp;Humidity;BMP_temperature;BMP_pressure;BME280_temperature;BME280_humidity;BME280_pressure;Samples;Min_cycle;Max_cycle;Signal;HPM_P1;HPM_P2
2023/12/30 00:01:30;;;;;;;12.20;8.80;;;;;;;5.12;52.74;94139.03;5088605;28;20039;-77
2023/12/30 00:03:55;;;;;;;13.35;10.45;;;;;;;5.22;52.85;94158.50;5087036;28;20066;-77
2023/12/30 00:06:20;;;;;;;13.57;9.35;;;;;;;5.26;52.34;94154.25;5093014;27;20393;-77
2023/12/30 00:08:46;;;;;;;13.27;8.88;;;;;;;5.22;52.33;94146.13;5083047;28;20754;-77
2023/12/30 00:11:11;;;;;;;13.98;9.48;;;;;;;5.21;52.49;94147.16;5098531;28;20117;-77
2023/12/30 00:13:39;;;;;;;14.85;10.55;;;;;;;5.29;52.26;94159.78;5092567;28;20107;-77
2023/12/30 00:16:05;;;;;;;21.00;15.80;;;;;;;5.14;52.67;94155.38;5091292;28;20643;-76
2023/12/30 00:18:30;;;;;;;27.38;17.73;;;;;;;5.08;53.24;94159.09;5084297;27;20035;-77
2023/12/30 00:20:56;;;;;;;19.25;14.30;;;;;;;5.10;53.08;94156.97;5093092;28;20024;-76
2023/12/30 00:23:22;;;;;;;19.83;14.38;;;;;;;5.10;52.90;94164.88;5090527;28;20046;-77
2023/12/30 00:25:47;;;;;;;24.08;15.50;;;;;;;5.07;53.21;94160.16;5088044;28;20123;-77
2023/12/30 00:28:13;;;;;;;24.17;15.98;;;;;;;4.91;53.17;94147.28;5092138;28;20027;-77
2023/12/30 00:30:38;;;;;;;17.50;11.70;;;;;;;4.96;53.14;94158.59;5083648;28;20024;-77
2023/12/30 00:33:04;;;;;;;12.77;9.25;;;;;;;5.00;53.18;94164.91;5089430;28;20040;-77
2023/12/30 00:35:30;;;;;;;16.00;8.23;;;;;;;4.96;52.99;94166.50;5089593;28;20687;-77
2023/12/30 00:37:55;;;;;;;14.60;9.35;;;;;;;4.88;53.17;94158.38;5089655;27;20047;-78
2023/12/30 00:40:21;;;;;;;15.95;9.77;;;;;;;4.78;53.15;94143.41;5094054;28;20032;-77
2023/12/30 00:42:46;;;;;;;16.15;10.05;;;;;;;4.90;53.29;94162.31;5093470;28;20034;-77
2023/12/30 00:45:11;;;;;;;17.45;12.15;;;;;;;5.00;53.01;94167.56;5089421;27;20038;-77
2023/12/30 00:47:37;;;;;;;24.10;13.10;;;;;;;4.99;53.12;94173.88;5089000;28;20338;-78
2023/12/30 00:50:02;;;;;;;21.63;15.35;;;;;;;4.98;53.22;94174.16;5090677;27;20044;-77
2023/12/30 00:52:28;;;;;;;20.77;13.88;;;;;;;4.90;53.22;94162.31;5087661;27;21031;-76
2023/12/30 00:54:53;;;;;;;20.10;13.13;;;;;;;4.90;53.44;94164.94;5085766;28;20027;-76
2023/12/30 00:57:18;;;;;;;17.17;11.95;;;;;;;4.88;53.27;94159.16;5091514;28;20031;-77
2023/12/30 00:59:44;;;;;;;17.00;11.93;;;;;;;4.92;53.28;94181.28;5086355;27;20508;-77
2023/12/30 01:02:09;;;;;;;15.05;11.57;;;;;;;4.82;53.12;94165.50;5090391;28;20035;-76
2023/12/30 01:04:35;;;;;;;20.38;12.27;;;;;;;4.69;53.36;94160.81;5087415;28;20031;-77
2023/12/30 01:07:00;;;;;;;15.25;11.25;;;;;;;4.60;53.72;94146.59;5077962;28;20106;-76
2023/12/30 01:09:26;;;;;;;13.25;10.18;;;;;;;4.48;53.77;94146.09;5087928;28;20426;-77
2023/12/30 01:11:51;;;;;;;15.07;10.25;;;;;;;4.62;53.88;94165.56;5090195;28;20028;-77
2023/12/30 01:14:17;;;;;;;14.85;9.70;;;;;;;4.64;53.83;94174.00;5089814;28;20035;-78
2023/12/30 01:16:42;;;;;;;14.40;10.18;;;;;;;4.63;53.71;94170.56;5086452;28;20036;-76
2023/12/30 01:19:08;;;;;;;16.55;9.20;;;;;;;4.58;53.47;94169.78;5092322;28;20038;-77
2023/12/30 01:21:33;;;;;;;16.17;10.07;;;;;;;4.57;53.48;94157.66;5085535;28;20741;-76
2023/12/30 01:23:58;;;;;;;18.63;12.00;;;;;;;4.64;53.34;94171.34;5090921;27;20497;-77
2023/12/30 01:26:24;;;;;;;15.27;11.40;;;;;;;4.48;53.69;94160.06;5088025;28;20426;-77
2023/12/30 01:28:49;;;;;;;24.27;13.60;;;;;;;4.48;53.72;94160.06;5090487;28;20036;-77
2023/12/30 01:31:17;;;;;;;23.08;12.70;;;;;;;4.51;53.68;94164.00;5090548;27;20032;-77
2023/12/30 01:33:42;;;;;;;19.10;13.05;;;;;;;4.49;53.83;94163.47;5091072;28;20030;-77
2023/12/30 01:36:08;;;;;;;15.48;11.45;;;;;;;4.35;54.57;94165.88;5089408;28;20392;-76
2023/12/30 01:38:34;;;;;;;16.83;11.20;;;;;;;4.35;54.36;94159.81;5087580;28;20078;-76
2023/12/30 01:40:59;;;;;;;18.58;12.35;;;;;;;4.37;54.73;94157.69;5091602;28;22439;-76
2023/12/30 01:43:28;;;;;;;12.68;10.00;;;;;;;4.44;54.30;94159.00;5088368;28;20503;-77
2023/12/30 01:46:00;;;;;;;15.93;10.07;;;;;;;4.29;54.33;94140.56;5091325;28;20024;-77
2023/12/30 01:48:28;;;;;;;14.80;10.65;;;;;;;4.17;54.50;94129.50;5085722;28;20492;-77
2023/12/30 01:50:58;;;;;;;13.27;10.07;;;;;;;4.17;54.46;94138.19;5090184;28;20164;-76
2023/12/30 01:53:31;;;;;;;16.02;9.90;;;;;;;4.18;54.62;94145.06;5089073;28;20035;-77
2023/12/30 01:55:58;;;;;;;16.85;10.57;;;;;;;4.20;54.53;94137.69;5091006;28;20040;-77
2023/12/30 01:58:23;;;;;;;17.10;10.98;;;;;;;4.26;54.47;94152.41;5089495;28;20032;-77
2023/12/30 02:00:51;;;;;;;14.73;9.93;;;;;;;4.21;54.75;94147.16;5082920;27;20016;-77
2023/12/30 02:03:17;;;;;;;14.32;11.23;;;;;;;4.09;54.74;94138.75;5090931;28;20072;-76
2023/12/30 02:05:43;;;;;;;15.25;11.18;;;;;;;4.06;55.08;94131.34;5086537;27;20043;-76
2023/12/30 02:08:08;;;;;;;22.85;11.82;;;;;;;4.06;54.91;94120.84;5092123;28;20043;-77
2023/12/30 02:10:34;;;;;;;18.35;11.10;;;;;;;4.10;55.01;94121.91;5083955;28;20040;-77
2023/12/30 02:12:59;;;;;;;12.85;9.35;;;;;;;4.26;55.02;94144.50;5089760;28;20032;-77
2023/12/30 02:15:32;;;;;;;14.32;9.55;;;;;;;4.32;54.85;94139.25;5092528;28;20019;-76
2023/12/30 02:17:58;;;;;;;14.50;10.07;;;;;;;4.33;54.91;94136.38;5089516;28;20055;-77
2023/12/30 02:20:24;;;;;;;18.55;10.25;;;;;;;4.26;54.76;94138.44;5091527;28;20111;-77
2023/12/30 02:22:50;;;;;;;13.68;9.68;;;;;;;4.13;54.63;94118.72;5081578;28;20031;-77
2023/12/30 02:25:16;;;;;;;15.98;9.43;;;;;;;4.06;54.85;94120.06;5087479;28;20040;-77
2023/12/30 02:27:42;;;;;;;16.00;9.30;;;;;;;3.99;55.05;94127.44;5083713;28;20768;-77
2023/12/30 02:30:09;;;;;;;14.50;9.82;;;;;;;3.96;55.08;94120.88;5087533;28;20499;-77
2023/12/30 02:32:38;;;;;;;14.98;9.50;;;;;;;4.08;54.88;94139.78;5089854;28;20040;-77
2023/12/30 02:35:04;;;;;;;14.15;9.77;;;;;;;4.05;55.09;94142.97;5088235;28;20157;-77
2023/12/30 02:37:29;;;;;;;17.33;11.15;;;;;;;4.05;54.99;94134.28;5119984;27;20449;-77
2023/12/30 02:39:55;;;;;;;18.15;10.45;;;;;;;4.03;54.55;94134.53;5086185;28;20023;-77
2023/12/30 02:42:20;;;;;;;15.55;9.95;;;;;;;3.97;54.85;94135.56;5088322;28;20051;-77
2023/12/30 02:44:46;;;;;;;13.70;10.30;;;;;;;3.87;54.70;94140.84;5086061;28;20120;-77
2023/12/30 02:47:11;;;;;;;13.90;10.02;;;;;;;3.93;54.95;94145.06;5090598;28;20385;-77
2023/12/30 02:49:43;;;;;;;17.52;10.45;;;;;;;3.95;54.59;94147.44;5090593;28;20687;-76
2023/12/30 02:52:08;;;;;;;14.07;10.05;;;;;;;3.88;55.09;94134.53;5088660;28;20495;-76
2023/12/30 02:54:35;;;;;;;14.63;10.60;;;;;;;3.90;55.15;94132.44;5089872;28;20024;-77
2023/12/30 02:57:02;;;;;;;16.95;10.93;;;;;;;3.89;55.37;94124.78;5085360;28;20486;-77
2023/12/30 02:59:28;;;;;;;15.65;10.50;;;;;;;4.07;55.41;94138.22;5087716;28;20388;-77
2023/12/30 03:01:53;;;;;;;13.15;9.52;;;;;;;4.06;55.50;94141.88;5086241;28;20066;-77
2023/12/30 03:04:19;;;;;;;15.63;10.70;;;;;;;3.83;55.46;94098.47;5087976;28;20029;-78
2023/12/30 03:06:45;;;;;;;19.15;10.18;;;;;;;4.10;55.32;94132.44;5083721;28;20116;-77
2023/12/30 03:09:11;;;;;;;15.32;10.32;;;;;;;3.91;55.32;94112.19;5093834;28;20086;-77
2023/12/30 03:11:37;;;;;;;16.67;10.13;;;;;;;3.87;55.68;94127.69;5088122;28;20040;-77
2023/12/30 03:14:03;;;;;;;17.35;11.20;;;;;;;3.87;55.42;94121.66;5081667;28;20036;-76
2023/12/30 03:16:28;;;;;;;17.70;11.10;;;;;;;3.98;55.53;94133.75;5089733;28;20525;-76
2023/12/30 03:18:55;;;;;;;14.93;10.38;;;;;;;4.04;55.46;94130.84;5084749;28;20354;-77
2023/12/30 03:21:21;;;;;;;17.13;10.95;;;;;;;3.94;55.28;94124.78;5087002;28;20031;-77
2023/12/30 03:23:46;;;;;;;14.93;10.95;;;;;;;3.90;55.53;94111.38;5091922;28;20028;-77
2023/12/30 03:26:12;;;;;;;16.60;8.82;;;;;;;3.71;55.35;94090.09;5087567;28;20491;-78
2023/12/30 03:28:43;;;;;;;17.27;11.13;;;;;;;3.85;55.58;94119.28;5087210;28;20055;-77
2023/12/30 03:31:24;;;;;;;16.63;10.95;;;;;;;4.00;54.95;94142.97;5087478;28;20485;-77
2023/12/30 03:33:50;;;;;;;20.70;12.95;;;;;;;3.89;55.13;94138.75;5084148;28;20024;-77
2023/12/30 03:36:16;;;;;;;18.85;13.25;;;;;;;3.73;55.16;94137.94;5091785;28;20047;-77
2023/12/30 03:38:41;;;;;;;20.65;13.35;;;;;;;3.70;55.49;94135.06;5088809;28;20151;-77
2023/12/30 03:41:06;;;;;;;17.98;13.98;;;;;;;3.62;55.54;94125.06;5082354;28;20493;-77
2023/12/30 03:43:32;;;;;;;20.45;13.50;;;;;;;3.82;55.35;94152.16;5086180;28;20032;-77
2023/12/30 03:45:57;;;;;;;21.95;14.40;;;;;;;3.57;55.35;94120.59;5082036;28;20544;-78
2023/12/30 03:48:23;;;;;;;22.00;14.65;;;;;;;3.56;55.68;94128.72;5093987;28;20444;-77
2023/12/30 03:50:48;;;;;;;18.80;12.07;;;;;;;3.56;55.35;94134.78;5085272;28;20089;-77
2023/12/30 03:53:14;;;;;;;25.00;13.32;;;;;;;3.58;55.50;94137.13;5088047;28;20036;-77
2023/12/30 03:55:39;;;;;;;16.92;11.73;;;;;;;3.48;55.69;94129.25;5090429;28;20039;-77
2023/12/30 03:58:05;;;;;;;19.05;12.55;;;;;;;3.42;55.46;94125.03;5084656;28;20369;-76
2023/12/30 04:00:30;;;;;;;18.10;12.80;;;;;;;3.52;55.45;94132.94;5088118;28;20093;-77
2023/12/30 04:02:55;;;;;;;18.73;11.73;;;;;;;3.61;55.44;94150.56;5091415;28;20392;-77
2023/12/30 04:05:22;;;;;;;21.73;16.35;;;;;;;3.27;56.49;94144.97;5090939;27;20461;-77
2023/12/30 04:07:48;;;;;;;26.17;16.17;;;;;;;3.32;56.99;94155.50;5085492;28;20032;-78
2023/12/30 04:10:15;;;;;;;21.75;14.95;;;;;;;3.28;56.90;94130.75;5089307;28;20148;-77
2023/12/30 04:12:44;;;;;;;15.43;10.65;;;;;;;3.40;56.62;94144.47;5091972;28;20015;-77
2023/12/30 04:15:10;;;;;;;15.30;10.07;;;;;;;3.56;56.50;94155.03;5091205;28;20043;-77
2023/12/30 04:17:35;;;;;;;13.75;9.48;;;;;;;3.39;56.54;94128.94;5089689;28;20032;-77
2023/12/30 04:20:01;;;;;;;14.52;9.10;;;;;;;3.49;56.59;94151.84;5085903;28;20035;-76
2023/12/30 04:22:28;;;;;;;11.13;7.82;;;;;;;3.51;56.95;94161.06;5091667;28;20032;-77
2023/12/30 04:24:54;;;;;;;10.05;7.85;;;;;;;3.40;56.69;94133.97;5087560;28;20027;-77
2023/12/30 04:27:20;;;;;;;11.40;7.00;;;;;;;3.31;56.75;94111.06;5092829;27;20055;-77
2023/12/30 04:29:45;;;;;;;15.32;8.73;;;;;;;3.60;56.72;94162.13;5084572;28;20125;-77
2023/12/30 04:32:10;;;;;;;9.80;7.22;;;;;;;3.68;56.44;94160.81;5089804;28;20036;-75
2023/12/30 04:34:36;;;;;;;12.70;8.93;;;;;;;3.58;56.65;94148.44;5091436;28;20039;-75
2023/12/30 04:37:02;;;;;;;13.65;8.85;;;;;;;3.68;56.72;94155.56;5085083;27;20076;-76
2023/12/30 04:39:27;;;;;;;12.60;8.77;;;;;;;3.54;56.45;94143.97;5090695;28;20020;-77
2023/12/30 04:41:53;;;;;;;16.35;8.68;;;;;;;3.59;56.22;94154.50;5082990;28;20494;-76
2023/12/30 04:44:18;;;;;;;12.18;8.27;;;;;;;3.54;56.41;94143.97;5088859;28;20031;-76
2023/12/30 04:46:43;;;;;;;11.35;7.80;;;;;;;3.60;56.33;94163.97;5085742;28;20039;-75
2023/12/30 04:49:11;;;;;;;12.10;7.90;;;;;;;3.45;56.09;94138.44;5088100;28;20519;-76
2023/12/30 04:51:37;;;;;;;12.35;8.50;;;;;;;3.54;56.07;94165.00;5087512;28;20048;-75
2023/12/30 04:54:02;;;;;;;11.63;7.95;;;;;;;3.51;55.88;94170.78;5079296;28;20040;-76
2023/12/30 04:56:28;;;;;;;12.50;8.32;;;;;;;3.63;55.44;94173.97;5090791;28;20039;-76
2023/12/30 04:58:53;;;;;;;14.85;12.40;;;;;;;3.36;56.13;94164.47;5088100;28;20032;-77
2023/12/30 05:01:19;;;;;;;20.80;14.13;;;;;;;3.44;55.83;94180.75;5088053;28;20031;-75
2023/12/30 05:03:44;;;;;;;19.42;13.05;;;;;;;3.36;56.42;94185.50;5084285;28;20031;-74
2023/12/30 05:06:23;;;;;;;25.42;20.00;;;;;;;3.24;56.63;94181.50;5085757;27;20036;-76
2023/12/30 05:08:53;;;;;;;21.85;16.10;;;;;;;3.12;56.78;94167.78;5088139;28;20032;-75
2023/12/30 05:11:19;;;;;;;21.95;16.35;;;;;;;3.17;56.70;94180.97;5082001;28;20579;-75
2023/12/30 05:13:45;;;;;;;21.15;14.55;;;;;;;3.20;56.57;94186.47;5085436;27;20032;-77
2023/12/30 05:16:11;;;;;;;21.90;14.57;;;;;;;3.10;56.81;94173.31;5083358;28;20040;-77
2023/12/30 05:18:37;;;;;;;20.77;13.90;;;;;;;3.04;56.95;94171.69;5089208;28;20629;-76
2023/12/30 05:21:03;;;;;;;18.70;14.43;;;;;;;3.06;57.55;94174.06;5093161;28;20033;-75
2023/12/30 05:23:28;;;;;;;18.50;11.68;;;;;;;3.00;57.40;94177.72;5082341;28;20031;-75
2023/12/30 05:25:53;;;;;;;16.55;10.70;;;;;;;3.08;57.27;94180.66;5085938;28;20048;-74
2023/12/30 05:28:19;;;;;;;18.52;10.85;;;;;;;3.16;57.15;94185.41;5082614;28;20044;-76
2023/12/30 05:30:44;;;;;;;17.95;11.70;;;;;;;3.14;56.88;94187.50;5087610;28;20023;-74
2023/12/30 05:33:10;;;;;;;16.77;10.32;;;;;;;3.14;56.93;94168.31;5087324;28;20044;-75
2023/12/30 05:35:36;;;;;;;15.90;10.13;;;;;;;3.26;57.35;94185.47;5085606;28;20055;-74
2023/12/30 05:38:03;;;;;;;13.95;10.10;;;;;;;3.37;58.04;94181.81;5085578;28;20570;-74
2023/12/30 05:40:29;;;;;;;14.73;9.55;;;;;;;3.48;57.84;94187.09;5080063;28;20307;-75
2023/12/30 05:42:55;;;;;;;20.27;12.48;;;;;;;3.53;57.39;94182.63;5088819;28;20016;-75
2023/12/30 05:45:20;;;;;;;14.55;10.50;;;;;;;3.51;57.15;94187.38;5083614;28;20058;-76
2023/12/30 05:47:46;;;;;;;15.50;10.35;;;;;;;3.33;56.63;94169.44;5087171;28;20042;-76
2023/12/30 05:50:12;;;;;;;16.40;9.13;;;;;;;3.45;57.32;94184.97;5085403;28;20128;-74
2023/12/30 05:52:38;;;;;;;12.68;9.23;;;;;;;3.31;57.10;94164.44;5074805;28;20082;-78
2023/12/30 05:55:03;;;;;;;16.70;9.68;;;;;;;3.45;56.81;94192.88;5080465;28;20136;-75
2023/12/30 05:57:29;;;;;;;11.77;9.68;;;;;;;3.25;56.61;94173.34;5082619;28;20055;-78
2023/12/30 05:59:54;;;;;;;17.95;12.57;;;;;;;3.40;56.53;94202.31;5088318;28;20055;-76
2023/12/30 06:02:19;;;;;;;13.43;9.55;;;;;;;3.42;56.36;94203.91;5081508;28;20036;-75
2023/12/30 06:04:45;;;;;;;19.40;10.88;;;;;;;3.31;56.16;94188.09;5091099;28;20038;-76
2023/12/30 06:07:10;;;;;;;26.30;16.00;;;;;;;3.28;56.23;94188.59;5088417;27;20032;-76
2023/12/30 06:09:36;;;;;;;33.13;19.25;;;;;;;3.32;56.24;94199.41;5086009;27;20035;-75
2023/12/30 06:12:02;;;;;;;31.17;19.10;;;;;;;3.23;56.49;94195.69;5082598;28;20564;-76
2023/12/30 06:14:27;;;;;;;30.50;21.50;;;;;;;3.07;56.37;94175.66;5084637;28;20078;-75
2023/12/30 06:16:53;;;;;;;40.20;21.65;;;;;;;3.07;56.92;94221.13;5086174;28;20036;-77
2023/12/30 06:19:18;;;;;;;32.47;22.05;;;;;;;3.09;56.98;94220.84;5086101;28;20042;-76
2023/12/30 06:21:44;;;;;;;48.03;31.17;;;;;;;2.94;57.12;94195.28;5081622;28;20023;-77
2023/12/30 06:24:09;;;;;;;57.75;36.90;;;;;;;3.11;57.04;94197.75;5083664;28;20064;-76
2023/12/30 06:26:38;;;;;;;62.42;39.08;;;;;;;3.13;56.91;94214.06;5084621;28;20039;-75
2023/12/30 06:29:05;;;;;;;73.97;43.08;;;;;;;3.05;57.11;94204.81;5089923;28;20040;-76
2023/12/30 06:31:31;;;;;;;70.40;43.20;;;;;;;3.04;56.98;94216.38;5079780;28;20043;-75
2023/12/30 06:33:57;;;;;;;64.63;41.60;;;;;;;3.05;56.48;94196.94;5093949;28;20031;-74
2023/12/30 06:36:25;;;;;;;56.15;38.50;;;;;;;3.11;56.70;94205.63;5080260;28;20020;-76
2023/12/30 06:38:51;;;;;;;46.75;33.00;;;;;;;2.71;57.22;94198.34;5084612;28;20040;-75
2023/12/30 06:41:18;;;;;;;52.90;36.38;;;;;;;2.87;57.91;94221.03;5093644;28;20039;-77
2023/12/30 06:43:44;;;;;;;47.70;33.25;;;;;;;2.97;57.75;94234.22;5089729;28;20359;-76
2023/12/30 06:46:20;;;;;;;47.13;32.88;;;;;;;3.05;57.79;94238.97;5094171;28;20035;-76
2023/12/30 06:48:46;;;;;;;43.70;29.55;;;;;;;3.18;57.04;94241.16;5094440;28;20107;-77
2023/12/30 06:51:15;;;;;;;38.70;27.48;;;;;;;3.02;57.34;94242.13;5097022;28;20063;-77
2023/12/30 06:53:43;;;;;;;39.08;27.25;;;;;;;3.01;57.37;94235.28;5094866;28;20111;-77
2023/12/30 06:56:09;;;;;;;40.33;26.17;;;;;;;2.95;57.14;94236.28;5100440;28;20100;-77
2023/12/30 06:58:35;;;;;;;40.22;27.02;;;;;;;3.02;57.10;94236.88;5085921;28;20032;-77
2023/12/30 07:01:01;;;;;;;39.67;27.35;;;;;;;3.14;56.69;94240.06;5055562;28;20035;-76
2023/12/30 07:03:27;;;;;;;35.90;25.48;;;;;;;3.16;56.85;94248.50;5081938;28;20020;-76
2023/12/30 07:05:52;;;;;;;41.72;25.38;;;;;;;3.06;56.83;94232.69;5084997;28;20031;-76
2023/12/30 07:08:18;;;;;;;35.35;23.30;;;;;;;2.83;57.26;94205.00;5089356;28;20051;-77
2023/12/30 07:10:43;;;;;;;31.42;23.25;;;;;;;2.96;56.99;94230.78;5088337;28;20031;-76
2023/12/30 07:13:09;;;;;;;31.08;22.65;;;;;;;3.06;57.47;94242.41;5086864;28;20059;-77
2023/12/30 07:15:38;;;;;;;32.00;23.80;;;;;;;3.05;57.80;94240.81;5084767;28;20024;-76
2023/12/30 07:18:04;;;;;;;40.55;27.85;;;;;;;3.08;57.59;94246.38;5094414;28;20056;-75
2023/12/30 07:20:29;;;;;;;34.10;25.08;;;;;;;3.17;57.80;94262.44;5101055;28;20028;-77
2023/12/30 07:22:56;;;;;;;35.53;24.33;;;;;;;3.10;58.02;94241.63;5087057;28;20039;-76
2023/12/30 07:25:22;;;;;;;34.83;25.60;;;;;;;3.27;57.93;94258.03;5087116;28;20032;-76
2023/12/30 07:27:49;;;;;;;34.72;23.05;;;;;;;3.35;57.62;94252.25;5086823;28;20024;-75
2023/12/30 07:30:15;;;;;;;39.17;24.92;;;;;;;3.39;57.25;94242.81;5089135;28;20044;-76
2023/12/30 07:32:41;;;;;;;35.33;24.85;;;;;;;3.68;57.81;94271.31;5085141;28;20043;-76
2023/12/30 07:35:06;;;;;;;41.50;27.45;;;;;;;3.52;58.16;94272.31;5083361;28;20476;-77
2023/12/30 07:37:33;;;;;;;42.88;27.27;;;;;;;2.80;60.85;94254.59;5090959;28;20455;-76
2023/12/30 07:40:00;;;;;;;44.40;30.63;;;;;;;2.61;63.75;94288.34;5081828;27;20027;-76
2023/12/30 07:42:25;;;;;;;55.78;34.65;;;;;;;3.02;61.49;94257.09;5092297;28;20050;-76
2023/12/30 07:44:52;;;;;;;63.47;40.25;;;;;;;3.28;60.79;94277.22;5090031;28;20459;-76
2023/12/30 07:47:18;;;;;;;58.05;39.00;;;;;;;3.44;60.18;94275.41;5091531;28;20054;-77
2023/12/30 07:49:44;;;;;;;58.17;36.28;;;;;;;3.60;59.18;94264.72;5092922;28;20028;-76
2023/12/30 07:52:09;;;;;;;63.05;38.58;;;;;;;3.56;59.29;94244.44;5084914;28;20112;-75
2023/12/30 07:54:35;;;;;;;53.58;36.50;;;;;;;3.71;59.16;94268.97;5088087;28;20030;-76
2023/12/30 07:57:01;;;;;;;69.88;46.03;;;;;;;3.67;60.22;94269.75;5088076;27;20642;-76
2023/12/30 07:59:27;;;;;;;65.47;44.67;;;;;;;3.95;59.18;94279.81;5086660;28;20038;-76
2023/12/30 08:01:56;;;;;;;65.90;48.25;;;;;;;3.92;59.37;94277.69;5085149;27;20763;-77
2023/12/30 08:04:22;;;;;;;67.95;46.83;;;;;;;4.00;58.83;94268.50;5040442;28;20167;-76
2023/12/30 08:06:48;;;;;;;70.32;49.45;;;;;;;3.73;60.36;94280.00;5079381;27;20480;-76
2023/12/30 08:09:14;;;;;;;78.07;51.80;;;;;;;3.75;61.32;94283.19;5088944;28;20039;-76
2023/12/30 08:11:39;;;;;;;68.38;46.65;;;;;;;3.85;60.94;94287.69;5066102;27;20032;-77
2023/12/30 08:14:05;;;;;;;63.50;44.60;;;;;;;4.20;59.78;94293.03;5079103;28;20048;-76
2023/12/30 08:16:31;;;;;;;68.53;45.58;;;;;;;3.98;60.54;94292.44;5076911;28;20052;-77
2023/12/30 08:18:58;;;;;;;74.90;48.90;;;;;;;4.00;60.69;94300.09;5079919;28;20024;-77
2023/12/30 08:21:23;;;;;;;73.60;47.42;;;;;;;3.96;60.21;94288.50;5081609;28;20027;-77
2023/12/30 08:23:48;;;;;;;63.58;44.08;;;;;;;4.35;59.24;94307.28;5098508;27;20081;-76
2023/12/30 08:26:14;;;;;;;53.53;41.08;;;;;;;4.40;59.14;94291.50;5077031;28;20417;-77
2023/12/30 08:28:39;;;;;;;60.97;41.92;;;;;;;4.49;58.26;94297.81;5082829;28;20045;-77
2023/12/30 08:31:05;;;;;;;61.83;41.70;;;;;;;4.58;58.47;94304.94;5090638;27;20115;-77
2023/12/30 08:33:30;;;;;;;42.28;31.42;;;;;;;4.62;58.27;94307.81;5074178;28;20796;-77
2023/12/30 08:35:56;;;;;;;49.53;33.90;;;;;;;4.60;58.73;94321.25;5085855;27;20346;-77
2023/12/30 08:38:21;;;;;;;49.95;34.60;;;;;;;4.95;57.82;94311.75;5081757;27;20050;-77
2023/12/30 08:40:47;;;;;;;50.10;33.67;;;;;;;5.11;57.17;94308.03;5077986;28;20036;-77
2023/12/30 08:43:13;;;;;;;43.10;29.50;;;;;;;5.14;56.30;94303.03;5079171;27;20020;-77
2023/12/30 08:45:38;;;;;;;46.63;29.63;;;;;;;5.08;57.28;94296.19;5074820;28;20031;-77
2023/12/30 08:48:05;;;;;;;41.22;25.88;;;;;;;4.70;57.18;94270.41;5079487;28;20040;-77
2023/12/30 08:50:31;;;;;;;37.83;26.90;;;;;;;4.87;57.94;94294.63;5076361;28;20516;-77
2023/12/30 08:52:56;;;;;;;42.17;27.40;;;;;;;5.12;57.18;94265.59;5074946;27;20070;-77
2023/12/30 08:55:22;;;;;;;40.58;28.27;;;;;;;5.51;56.46;94288.69;5077109;28;20114;-77
2023/12/30 08:57:47;;;;;;;38.20;26.52;;;;;;;5.13;57.41;94274.31;5080718;27;20064;-76
2023/12/30 09:00:14;;;;;;;38.85;25.67;;;;;;;5.48;56.87;94281.31;5077554;28;20070;-77
2023/12/30 09:02:46;;;;;;;41.03;29.17;;;;;;;5.72;56.19;94284.13;5081320;28;20031;-76
2023/12/30 09:05:21;;;;;;;36.42;25.17;;;;;;;5.67;55.45;94255.91;5093202;28;20762;-77
2023/12/30 09:07:50;;;;;;;27.60;17.52;;;;;;;5.48;56.03;94279.44;5090517;27;20054;-76
2023/12/30 09:10:17;;;;;;;26.80;18.13;;;;;;;5.32;57.12;94271.88;5091242;27;20061;-79
2023/12/30 09:12:44;;;;;;;32.10;22.13;;;;;;;5.55;56.79;94273.91;5087540;28;21004;-77
2023/12/30 09:15:10;;;;;;;40.80;25.92;;;;;;;5.15;58.94;94274.81;5093191;28;20062;-77
2023/12/30 09:17:37;;;;;;;45.13;26.42;;;;;;;5.28;58.43;94273.47;5092997;28;20793;-77
2023/12/30 09:20:03;;;;;;;35.53;23.80;;;;;;;4.82;59.94;94268.28;5075531;28;20496;-77
2023/12/30 09:22:29;;;;;;;36.17;22.88;;;;;;;4.63;60.00;94252.25;5080050;28;20043;-77
2023/12/30 09:24:54;;;;;;;30.88;20.02;;;;;;;4.86;60.65;94265.91;5076680;28;20787;-76
2023/12/30 09:27:21;;;;;;;38.65;23.10;;;;;;;4.94;59.81;94274.06;5077217;27;20042;-77
2023/12/30 09:29:46;;;;;;;39.78;24.73;;;;;;;5.33;58.79;94255.00;5075184;28;20910;-77
2023/12/30 09:32:12;;;;;;;40.53;24.90;;;;;;;5.55;57.64;94263.34;5080622;28;20047;-77
2023/12/30 09:35:03;;;;;;;43.80;27.63;;;;;;;5.79;57.81;94260.84;5077664;28;20040;-77
2023/12/30 09:37:28;;;;;;;34.60;25.30;;;;;;;5.82;57.11;94242.63;5075542;28;20043;-77
2023/12/30 09:39:55;;;;;;;39.63;26.50;;;;;;;5.58;57.67;94246.97;5077883;27;20027;-77
2023/12/30 09:42:20;;;;;;;42.80;28.83;;;;;;;5.36;58.56;94235.97;5076264;28;20027;-77
2023/12/30 09:44:47;;;;;;;44.95;27.50;;;;;;;6.02;56.99;94241.72;5080445;28;20799;-76
2023/12/30 09:47:13;;;;;;;45.10;28.08;;;;;;;6.12;56.36;94235.56;5073199;28;20039;-76
2023/12/30 09:49:40;;;;;;;40.22;25.67;;;;;;;6.34;55.04;94228.06;5076481;27;20122;-74
2023/12/30 09:52:08;;;;;;;43.25;27.25;;;;;;;6.05;55.89;94230.63;5061122;28;20377;-75
2023/12/30 09:54:34;;;;;;;41.35;25.83;;;;;;;5.93;56.70;94224.88;5080383;27;20020;-76
2023/12/30 09:57:04;;;;;;;36.85;25.05;;;;;;;5.73;56.77;94227.63;5076883;28;20043;-78
2023/12/30 09:59:40;;;;;;;41.55;26.20;;;;;;;5.69;57.22;94237.16;5075047;28;20035;-76
2023/12/30 10:02:10;;;;;;;41.42;26.85;;;;;;;6.15;55.78;94241.13;5074162;28;20036;-76
2023/12/30 10:04:37;;;;;;;40.00;25.73;;;;;;;6.08;56.12;94230.06;5073744;28;20085;-76
2023/12/30 10:07:02;;;;;;;36.25;25.05;;;;;;;6.37;55.65;94235.44;5076413;28;20114;-76
2023/12/30 10:09:30;;;;;;;41.53;27.02;;;;;;;6.65;54.83;94226.72;5077137;28;20718;-76
2023/12/30 10:11:57;;;;;;;44.38;25.42;;;;;;;6.48;55.01;94225.56;5077268;28;20032;-76
2023/12/30 10:14:22;;;;;;;41.70;26.17;;;;;;;6.60;54.53;94234.72;5075720;28;20044;-76
2023/12/30 10:16:48;;;;;;;41.30;27.45;;;;;;;6.85;54.37;94221.25;5076518;28;20275;-75
2023/12/30 10:19:15;;;;;;;40.33;24.98;;;;;;;7.07;53.59;94201.47;5074610;28;20023;-75
2023/12/30 10:21:41;;;;;;;45.28;28.88;;;;;;;7.36;52.55;94212.78;5073174;28;20453;-75
2023/12/30 10:24:07;;;;;;;40.97;28.10;;;;;;;7.13;52.83;94208.31;5076097;28;20151;-75
2023/12/30 10:26:33;;;;;;;47.70;30.40;;;;;;;7.40;52.28;94207.72;5072113;28;20036;-78
2023/12/30 10:29:00;;;;;;;47.25;30.73;;;;;;;7.51;52.09;94204.66;5079779;28;20039;-77
2023/12/30 10:31:26;;;;;;;46.80;31.13;;;;;;;7.61;52.09;94193.94;5072285;28;20086;-76
2023/12/30 10:33:52;;;;;;;50.78;34.50;;;;;;;7.06;53.01;94176.88;5075339;28;20127;-77
2023/12/30 10:36:19;;;;;;;48.65;33.83;;;;;;;7.56;52.74;94196.66;5074296;28;20044;-77
2023/12/30 10:38:45;;;;;;;44.72;32.50;;;;;;;7.70;51.86;94192.25;5080246;28;20165;-77
2023/12/30 10:41:11;;;;;;;48.03;34.72;;;;;;;7.81;52.09;94197.44;5069018;28;20034;-77
2023/12/30 10:43:38;;;;;;;52.13;34.97;;;;;;;7.98;51.48;94187.09;5075123;28;20031;-77
2023/12/30 10:46:12;;;;;;;54.42;36.92;;;;;;;7.88;51.50;94188.03;5077465;28;20058;-77
2023/12/30 10:48:52;;;;;;;49.83;35.78;;;;;;;7.57;52.25;94181.56;5078085;28;20177;-78
2023/12/30 10:51:26;;;;;;;58.45;38.28;;;;;;;7.32;52.64;94147.50;5074150;28;20058;-77
2023/12/30 10:54:07;;;;;;;52.58;37.50;;;;;;;7.83;51.61;94171.44;5076634;28;20174;-78
2023/12/30 10:56:40;;;;;;;67.35;38.13;;;;;;;7.87;52.27;94183.84;5082783;28;20032;-78
2023/12/30 10:59:07;;;;;;;52.85;37.47;;;;;;;7.63;52.11;94175.91;5087174;28;20579;-77
2023/12/30 11:01:34;;;;;;;60.08;40.45;;;;;;;7.35;53.17;94174.16;5096499;28;20029;-77
2023/12/30 11:04:11;;;;;;;58.17;38.60;;;;;;;7.73;52.46;94175.81;5079942;28;20572;-75
2023/12/30 11:06:53;;;;;;;62.88;39.20;;;;;;;8.15;51.31;94155.59;5076672;28;20488;-76
2023/12/30 11:09:22;;;;;;;63.30;41.38;;;;;;;8.36;50.88;94167.47;5089749;27;20051;-78
2023/12/30 11:11:50;;;;;;;62.20;41.92;;;;;;;8.38;51.09;94173.25;5077818;28;20028;-77
2023/12/30 11:14:17;;;;;;;60.72;42.20;;;;;;;8.32;50.64;94155.84;5078730;28;20131;-77
2023/12/30 11:16:43;;;;;;;58.28;42.03;;;;;;;8.55;50.13;94165.56;5080656;28;20035;-77
2023/12/30 11:19:08;;;;;;;64.07;43.40;;;;;;;8.26;50.14;94140.34;5077727;28;20019;-75
2023/12/30 11:21:37;;;;;;;70.53;43.72;;;;;;;8.42;50.21;94150.38;5082213;28;20035;-77
2023/12/30 11:24:18;;;;;;;60.15;43.88;;;;;;;8.03;51.75;94152.59;5089426;28;20044;-77